Adrian, OR

6:47 PM MDT on August 29, 2014 (GMT -0600)
KIDHOMED2 | Change Station
CLOSE
Current Station
Personal Weather Station
Location: Homedale, 3 SW, ID
Elevation: 2365 ft
Nearby Weather Stations

Elev 2365 ft 43.57 °N, 116.97 °W | Updated 3 seconds ago

Partly Cloudy
Partly Cloudy
87.0 °F
Feels Like 84 °F
N
0.0
Wind Variable Wind from ENE
Gusts 4.0 mph

Today
High -- | Low -- °F
--% Chance of Precip.
Yesterday
High -- | Low -- °F
Precip. -- in
7:08 AM 8:28 PM
Waxing Crescent, 17% visible
Pressure 29.81 in
Visibility 10.0 miles
Clouds Clear
Heat Index 84 °F
Dew Point 48 °F
Humidity 26%
Rainfall 0.00 in
Snow Depth Not available.
UV 1 out of 12
Pollen 7.80 out of 12
Air Quality Not available.
Flu Activity Not available.
METAR KEUL 300035Z AUTO 01005KT 10SM CLR 32/06 A2981 RMK AO1

More Conditions Fewer Conditions

Pressure 29.81 in
Visibility 10.0 miles
Clouds Clear
Heat Index 84 °F
Dew Point 48 °F
Humidity 26%
Rainfall 0.00 in
Snow Depth Not available.
UV 1 out of 12
Pollen 7.80 out of 12
Air Quality Not available.
Flu Activity Not available.
METAR KEUL 300035Z AUTO 01005KT 10SM CLR 32/06 A2981 RMK AO1

More Conditions Fewer Conditions

10-Day Weather Forecast

Almanac

Astronomy

Aug. 29, 2014 Rise Set
Actual Time 7:08 AM MDT 8:28 PM MDT
Civil Twilight 6:38 AM MDT 8:58 PM MDT
Nautical Twilight 6:02 AM MDT 9:34 PM MDT
Astronomical Twilight 5:24 AM MDT 10:12 PM MDT
Moon 11:11 AM MDT (8/29) 10:19 PM MDT (8/29)
Length of Visible Light 14h 19m
Length of Day
13h 20m
Tomorrow will be 2m 52s shorter.
Waxing Crescent, 17% of the Moon is Illuminated
Today
Waxing Crescent
Sep 2
First Quarter
Sep 8
Full
Sep 15
Last Quarter
Sep 24
New

Today's Extremes

State Highs State Lows

Community

WunderPhotos

Upload Photos

1,748,390 photos uploaded!

Nearby

Snow Depth

Station Depth Elevation
Blue Mountain Spring 0 in 5900 ft
Rock Springs 0 in 5550 ft
Schneider Meadows 0 in 5400 ft
Tipton 0 in 5150 ft
Bourne 3 in 5800 ft

Earthquake Activity

City Distance Mag. Time & Date
No recent earthquake activity has been reported nearby.
Minimum magnitude displayed is 2.5.

Coastal Water Temperatures

Place Temperature
No Stations Reporting

Nearby Weather Stations